createdAt,value
2022-12-27T00:01:37.596Z,5.21
2022-12-27T00:04:05.634Z,5.23
2022-12-27T00:06:34.719Z,5.23
2022-12-27T00:09:03.224Z,5.32
2022-12-27T00:11:31.295Z,5.22
2022-12-27T00:14:00.470Z,5.32
2022-12-27T00:16:28.868Z,5.38
2022-12-27T00:18:56.646Z,5.16
2022-12-27T00:21:24.344Z,5.16
2022-12-27T00:23:54.854Z,5.06
2022-12-27T00:26:23.676Z,5.06
2022-12-27T00:28:51.997Z,4.99
2022-12-27T00:31:21.244Z,4.94
2022-12-27T00:33:50.980Z,4.82
2022-12-27T00:36:20.603Z,4.87
2022-12-27T00:38:48.943Z,4.93
2022-12-27T00:41:18.901Z,4.97
2022-12-27T00:43:47.419Z,4.83
2022-12-27T00:46:15.852Z,4.84
2022-12-27T00:48:44.887Z,4.86
2022-12-27T00:51:14.528Z,4.87
2022-12-27T00:53:42.367Z,4.79
2022-12-27T00:56:11.773Z,4.79
2022-12-27T00:58:41.232Z,4.68
2022-12-27T01:01:10.933Z,4.70
2022-12-27T01:03:39.087Z,4.65
2022-12-27T01:06:07.580Z,4.64
2022-12-27T01:08:35.644Z,4.66
2022-12-27T01:11:03.586Z,4.47
2022-12-27T01:13:31.607Z,4.39
2022-12-27T01:16:00.754Z,4.38
2022-12-27T01:18:28.955Z,4.46
2022-12-27T01:20:56.653Z,4.33
2022-12-27T01:23:26.085Z,4.25
2022-12-27T01:26:00.814Z,4.36
2022-12-27T01:28:28.623Z,4.42
2022-12-27T01:30:56.307Z,4.26
2022-12-27T01:33:25.548Z,4.18
2022-12-27T01:35:53.200Z,4.27
2022-12-27T01:38:20.880Z,4.32
2022-12-27T01:40:48.522Z,4.16
2022-12-27T01:43:17.396Z,4.09
2022-12-27T01:45:47.281Z,4.06
2022-12-27T01:48:19.194Z,4.01
2022-12-27T01:50:52.398Z,3.99
2022-12-27T01:53:22.247Z,3.99
2022-12-27T01:55:53.580Z,3.97
2022-12-27T01:58:28.255Z,3.98
2022-12-27T02:00:57.597Z,3.93
2022-12-27T02:03:29.941Z,3.88
2022-12-27T02:06:00.987Z,3.88
2022-12-27T02:08:40.208Z,3.86
2022-12-27T02:11:10.474Z,3.80
2022-12-27T02:13:43.869Z,3.80
2022-12-27T02:16:14.714Z,3.80
2022-12-27T02:18:43.077Z,3.74
2022-12-27T02:21:32.676Z,3.66
2022-12-27T02:24:27.079Z,3.67
2022-12-27T02:27:02.393Z,3.68
2022-12-27T02:29:54.479Z,3.55
2022-12-27T02:32:29.411Z,3.58
2022-12-27T02:35:08.610Z,3.53
2022-12-27T02:37:42.422Z,3.64
2022-12-27T02:40:31.264Z,3.53
2022-12-27T02:43:16.473Z,3.49
2022-12-27T02:46:10.208Z,3.44
2022-12-27T02:48:55.333Z,3.42
2022-12-27T02:52:03.364Z,3.36
2022-12-27T02:55:04.693Z,3.40
2022-12-27T02:57:42.326Z,3.47
2022-12-27T03:00:32.206Z,3.38
2022-12-27T03:03:31.601Z,3.48
2022-12-27T03:06:41.215Z,3.38
2022-12-27T03:09:36.690Z,3.21
2022-12-27T03:12:28.256Z,3.35
2022-12-27T03:15:20.659Z,3.37
2022-12-27T03:17:55.002Z,3.37
2022-12-27T03:20:41.856Z,3.28
2022-12-27T03:23:28.829Z,3.23
2022-12-27T03:25:59.058Z,3.21
2022-12-27T03:28:46.834Z,3.21
2022-12-27T03:31:38.623Z,3.18
2022-12-27T03:34:24.017Z,3.12
2022-12-27T03:37:11.704Z,3.13
2022-12-27T03:39:44.950Z,3.14
2022-12-27T03:42:36.175Z,3.11
2022-12-27T03:45:03.899Z,3.12
2022-12-27T03:47:37.335Z,3.12
2022-12-27T03:50:09.877Z,3.10
2022-12-27T03:52:42.648Z,3.01
2022-12-27T03:55:11.774Z,3.06
2022-12-27T03:57:40.725Z,3.01
2022-12-27T04:00:09.459Z,2.96
2022-12-27T04:02:37.413Z,2.96
2022-12-27T04:05:05.557Z,3.02
2022-12-27T04:07:33.211Z,3.03
2022-12-27T04:10:19.524Z,3.03
2022-12-27T04:13:04.762Z,3.04
2022-12-27T04:15:50.209Z,2.89
2022-12-27T04:18:35.352Z,2.96
2022-12-27T04:21:20.599Z,2.95
2022-12-27T04:24:05.931Z,2.91
2022-12-27T04:26:52.328Z,3.00
2022-12-27T04:29:37.558Z,2.89
2022-12-27T04:32:22.815Z,2.84
2022-12-27T04:34:50.442Z,2.85
2022-12-27T04:37:20.401Z,2.91
2022-12-27T04:40:10.770Z,2.89
2022-12-27T04:42:56.363Z,2.87
2022-12-27T04:45:41.647Z,2.81
2022-12-27T04:48:45.394Z,2.82
2022-12-27T04:51:30.266Z,2.87
2022-12-27T04:54:15.188Z,2.81
2022-12-27T04:56:42.860Z,2.77
2022-12-27T04:59:29.466Z,2.77
2022-12-27T05:02:06.196Z,2.82
2022-12-27T05:04:36.714Z,2.81
2022-12-27T05:07:19.814Z,2.72
2022-12-27T05:10:04.013Z,2.69
2022-12-27T05:12:49.339Z,2.76
2022-12-27T05:15:18.373Z,2.77
2022-12-27T05:17:46.367Z,2.66
2022-12-27T05:20:13.967Z,2.67
2022-12-27T05:22:59.056Z,2.70
2022-12-27T05:25:35.725Z,2.70
2022-12-27T05:28:03.540Z,2.67
2022-12-27T05:30:33.689Z,2.73
2022-12-27T05:33:01.477Z,2.66
2022-12-27T05:35:29.867Z,2.69
2022-12-27T05:37:57.737Z,2.77
2022-12-27T05:40:26.254Z,2.78
2022-12-27T05:42:54.540Z,2.73
2022-12-27T05:45:22.169Z,2.79
2022-12-27T05:47:51.324Z,2.80
2022-12-27T05:50:19.222Z,2.68
2022-12-27T05:52:46.871Z,2.76
2022-12-27T05:55:14.546Z,2.78
2022-12-27T05:57:42.317Z,2.87
2022-12-27T06:00:12.218Z,2.82
2022-12-27T06:02:40.392Z,2.75
2022-12-27T06:05:10.715Z,2.68
2022-12-27T06:07:39.586Z,2.76
2022-12-27T06:10:10.150Z,2.83
2022-12-27T06:12:38.144Z,2.77
2022-12-27T06:15:07.111Z,2.73
2022-12-27T06:17:34.812Z,2.68
2022-12-27T06:20:02.532Z,2.66
2022-12-27T06:22:31.580Z,2.66
2022-12-27T06:24:59.242Z,2.62
2022-12-27T06:27:27.034Z,2.66
2022-12-27T06:29:54.684Z,2.66
2022-12-27T06:32:22.343Z,2.61
2022-12-27T06:34:49.993Z,2.69
2022-12-27T06:37:18.152Z,2.66
2022-12-27T06:39:47.311Z,2.58
2022-12-27T06:42:15.044Z,2.66
2022-12-27T06:44:42.701Z,2.62
2022-12-27T06:47:10.463Z,2.65
2022-12-27T06:49:38.174Z,2.55
2022-12-27T06:52:06.285Z,2.55
2022-12-27T06:54:33.953Z,2.54
2022-12-27T06:57:03.024Z,2.58
2022-12-27T06:59:30.699Z,2.55
2022-12-27T07:01:58.503Z,2.58
2022-12-27T07:04:26.354Z,2.65
2022-12-27T07:06:53.996Z,2.60
2022-12-27T07:09:21.637Z,2.55
2022-12-27T07:11:49.251Z,2.52
2022-12-27T07:14:18.274Z,2.64
2022-12-27T07:16:46.174Z,2.54
2022-12-27T07:19:14.067Z,2.60
2022-12-27T07:21:41.700Z,2.53
2022-12-27T07:24:09.514Z,2.62
2022-12-27T07:26:37.180Z,2.58
2022-12-27T07:29:04.835Z,2.66
2022-12-27T07:31:34.195Z,2.57
2022-12-27T07:34:03.888Z,2.63
2022-12-27T07:36:36.107Z,2.65
2022-12-27T07:39:04.385Z,2.72
2022-12-27T07:41:32.026Z,2.75
2022-12-27T07:43:59.683Z,2.66
2022-12-27T07:46:27.798Z,2.80
2022-12-27T07:48:58.986Z,2.75
2022-12-27T07:51:27.898Z,2.75
2022-12-27T07:53:56.079Z,2.69
2022-12-27T07:56:26.790Z,2.78
2022-12-27T07:58:56.811Z,2.75
2022-12-27T08:01:26.869Z,2.87
2022-12-27T08:03:56.418Z,2.87
2022-12-27T08:06:28.871Z,2.91
2022-12-27T08:08:58.620Z,2.92
2022-12-27T08:11:27.275Z,2.86
2022-12-27T08:13:55.116Z,2.91
2022-12-27T08:16:25.436Z,2.95
2022-12-27T08:18:53.923Z,2.87
2022-12-27T08:21:23.521Z,2.93
2022-12-27T08:23:51.186Z,2.85
2022-12-27T08:26:18.890Z,2.92
2022-12-27T08:28:46.519Z,2.88
2022-12-27T08:31:15.037Z,2.96
2022-12-27T08:33:42.893Z,2.92
2022-12-27T08:36:45.119Z,2.95
2022-12-27T08:39:01.769Z,2.93
2022-12-27T08:41:29.483Z,2.97
2022-12-27T08:43:57.123Z,3.04
2022-12-27T08:46:24.931Z,3.05
2022-12-27T08:48:52.701Z,2.99
2022-12-27T08:51:32.703Z,3.05
2022-12-27T08:54:05.119Z,3.07
2022-12-27T08:56:32.868Z,3.15
2022-12-27T08:59:00.632Z,3.25
2022-12-27T09:01:28.512Z,3.33
2022-12-27T09:03:56.348Z,3.45
2022-12-27T09:06:25.606Z,3.47
2022-12-27T09:08:54.573Z,3.40
2022-12-27T09:11:25.372Z,3.48
2022-12-27T09:13:53.157Z,3.56
2022-12-27T09:16:23.274Z,3.52
2022-12-27T09:18:53.769Z,3.62
2022-12-27T09:21:22.083Z,3.64
2022-12-27T09:23:50.889Z,3.68
2022-12-27T09:26:20.444Z,3.73
2022-12-27T09:28:50.708Z,3.75
2022-12-27T09:31:20.419Z,3.70
2022-12-27T09:33:48.214Z,3.71
2022-12-27T09:36:18.444Z,3.73
2022-12-27T09:38:46.847Z,3.82
2022-12-27T09:42:11.684Z,3.80
2022-12-27T09:44:14.218Z,3.94
2022-12-27T09:46:47.382Z,3.92
2022-12-27T09:49:18.783Z,3.96
2022-12-27T09:51:52.105Z,4.02
2022-12-27T09:54:26.421Z,4.12
2022-12-27T09:57:19.069Z,4.26
2022-12-27T09:59:48.709Z,4.33
2022-12-27T10:02:22.034Z,4.28
2022-12-27T10:05:19.110Z,4.37
2022-12-27T10:07:50.595Z,4.33
2022-12-27T10:10:26.929Z,4.48
2022-12-27T10:13:11.344Z,4.49
2022-12-27T10:15:50.308Z,4.49
2022-12-27T10:18:31.078Z,4.49
2022-12-27T10:21:08.540Z,4.45
2022-12-27T10:23:39.709Z,4.51
2022-12-27T10:26:20.505Z,4.48
2022-12-27T10:28:54.341Z,4.49
2022-12-27T10:31:27.295Z,4.51
2022-12-27T10:33:55.534Z,4.47
2022-12-27T10:36:26.179Z,4.64
2022-12-27T10:38:54.461Z,4.85
2022-12-27T10:41:33.391Z,4.98
2022-12-27T10:44:01.238Z,5.00
2022-12-27T10:46:33.323Z,4.93
2022-12-27T10:49:21.316Z,4.90
2022-12-27T10:51:52.222Z,4.77
2022-12-27T10:54:24.465Z,4.69
2022-12-27T10:56:52.694Z,4.69
2022-12-27T10:59:22.808Z,4.69
2022-12-27T11:02:15.779Z,4.72
2022-12-27T11:04:58.599Z,4.69
2022-12-27T11:07:31.290Z,4.69
2022-12-27T11:10:08.681Z,4.79
2022-12-27T11:12:36.567Z,4.74
2022-12-27T11:15:06.459Z,4.81
2022-12-27T11:17:39.444Z,4.85
2022-12-27T11:20:21.856Z,4.75
2022-12-27T11:22:52.212Z,4.70
2022-12-27T11:25:20.709Z,4.77
2022-12-27T11:27:52.074Z,4.73
2022-12-27T11:30:26.141Z,4.84
2022-12-27T11:32:55.713Z,4.80
2022-12-27T11:35:24.679Z,4.84
2022-12-27T11:37:53.228Z,4.86
2022-12-27T11:40:28.034Z,4.87
2022-12-27T11:43:05.278Z,4.83
2022-12-27T11:45:39.792Z,4.82
2022-12-27T11:48:21.982Z,4.85
2022-12-27T11:51:11.676Z,4.81
2022-12-27T11:54:05.925Z,4.85
2022-12-27T11:56:36.430Z,4.89
2022-12-27T11:59:25.115Z,4.84
2022-12-27T12:02:34.500Z,4.98
2022-12-27T12:05:34.378Z,4.97
2022-12-27T12:08:28.038Z,4.82
2022-12-27T12:11:06.993Z,4.86
2022-12-27T12:14:04.526Z,4.92
2022-12-27T12:17:03.456Z,4.89
2022-12-27T12:19:57.530Z,5.00
2022-12-27T12:22:39.743Z,4.92
2022-12-27T12:25:40.355Z,4.95
2022-12-27T12:28:55.817Z,4.99
2022-12-27T12:31:26.005Z,5.00
2022-12-27T12:34:14.670Z,5.03
2022-12-27T12:37:11.161Z,4.92
2022-12-27T12:39:57.573Z,4.96
2022-12-27T12:42:32.360Z,4.96
2022-12-27T12:45:28.416Z,5.01
2022-12-27T12:48:19.854Z,5.08
2022-12-27T12:51:18.649Z,5.24
2022-12-27T12:54:03.360Z,5.34
2022-12-27T12:56:47.786Z,5.21
2022-12-27T12:59:36.760Z,5.26
2022-12-27T13:02:26.277Z,5.24
2022-12-27T13:05:09.574Z,5.33
2022-12-27T13:07:51.379Z,5.43
2022-12-27T13:10:45.273Z,5.54
2022-12-27T13:13:23.053Z,5.53
2022-12-27T13:16:12.797Z,5.58
2022-12-27T13:18:54.056Z,5.62
2022-12-27T13:21:31.174Z,5.56
2022-12-27T13:24:08.366Z,5.42
2022-12-27T13:26:46.413Z,5.49
2022-12-27T13:30:06.266Z,5.41
2022-12-27T13:32:50.127Z,5.39
2022-12-27T13:35:31.133Z,5.30
2022-12-27T13:38:14.139Z,5.35
2022-12-27T13:41:14.604Z,5.27
2022-12-27T13:44:07.231Z,5.29
2022-12-27T13:46:54.802Z,5.28
2022-12-27T13:49:40.600Z,5.27
2022-12-27T13:52:17.814Z,5.31
2022-12-27T13:55:14.062Z,5.37
2022-12-27T13:58:03.000Z,5.31
2022-12-27T14:00:37.214Z,5.28
2022-12-27T14:03:33.760Z,5.26
2022-12-27T14:06:29.720Z,5.23
2022-12-27T14:09:11.532Z,5.24
2022-12-27T14:11:54.629Z,5.15
2022-12-27T14:14:24.402Z,5.15
2022-12-27T14:17:06.831Z,5.14
2022-12-27T14:19:52.074Z,5.02
2022-12-27T14:22:53.839Z,5.07
2022-12-27T14:25:51.784Z,5.04
2022-12-27T14:28:59.290Z,5.11
2022-12-27T14:32:07.223Z,5.05
2022-12-27T14:35:01.098Z,5.01
2022-12-27T14:37:50.515Z,5.11
2022-12-27T14:40:51.279Z,5.01
2022-12-27T14:43:54.829Z,5.12
2022-12-27T14:46:56.157Z,5.13
2022-12-27T14:50:10.028Z,5.14
2022-12-27T14:53:16.883Z,5.05
2022-12-27T14:55:57.698Z,5.01
2022-12-27T14:58:52.037Z,4.97
2022-12-27T15:01:33.131Z,5.00
2022-12-27T15:04:11.686Z,4.91
2022-12-27T15:06:53.093Z,5.00
2022-12-27T15:09:30.629Z,4.92
2022-12-27T15:12:10.708Z,4.79
2022-12-27T15:14:55.243Z,4.82
2022-12-27T15:17:35.294Z,4.84
2022-12-27T15:20:21.199Z,4.79
2022-12-27T15:23:00.283Z,4.85
2022-12-27T15:25:39.322Z,4.72
2022-12-27T15:28:18.082Z,4.71
2022-12-27T15:30:53.193Z,4.74
2022-12-27T15:33:34.326Z,4.67
2022-12-27T15:36:07.289Z,4.65
2022-12-27T15:38:51.062Z,4.70
2022-12-27T15:41:30.948Z,4.58
2022-12-27T15:44:39.097Z,4.44
2022-12-27T15:47:31.069Z,4.48
2022-12-27T15:50:30.017Z,4.61
2022-12-27T15:53:23.891Z,4.47
2022-12-27T15:56:10.569Z,4.49
2022-12-27T15:58:38.976Z,4.42
2022-12-27T16:01:30.037Z,4.41
2022-12-27T16:03:59.529Z,4.35
2022-12-27T16:06:49.921Z,4.25
2022-12-27T16:09:37.070Z,4.25
2022-12-27T16:12:13.041Z,4.37
2022-12-27T16:14:42.759Z,4.23
2022-12-27T16:17:33.042Z,4.30
2022-12-27T16:20:17.761Z,4.21
2022-12-27T16:22:52.378Z,4.24
2022-12-27T16:25:30.895Z,4.21
2022-12-27T16:28:02.783Z,4.09
2022-12-27T16:30:41.471Z,4.04
2022-12-27T16:33:34.959Z,4.08
2022-12-27T16:36:25.533Z,4.00
2022-12-27T16:38:59.307Z,4.02
2022-12-27T16:41:43.357Z,4.00
2022-12-27T16:44:22.021Z,3.96
2022-12-27T16:47:10.234Z,3.90
2022-12-27T16:50:02.464Z,3.83
2022-12-27T16:52:59.940Z,3.78
2022-12-27T16:55:54.805Z,3.77
2022-12-27T16:58:32.826Z,3.70
2022-12-27T17:01:01.736Z,3.63
2022-12-27T17:03:50.518Z,3.66
2022-12-27T17:06:53.525Z,3.71
2022-12-27T17:09:44.370Z,3.62
2022-12-27T17:12:24.545Z,3.62
2022-12-27T17:15:00.218Z,3.54
2022-12-27T17:17:29.340Z,3.58
2022-12-27T17:20:01.608Z,3.64
2022-12-27T17:22:35.242Z,3.72
2022-12-27T17:25:04.539Z,3.68
2022-12-27T17:27:55.826Z,3.65
2022-12-27T17:30:25.883Z,3.54
2022-12-27T17:33:17.521Z,3.66
2022-12-27T17:36:05.362Z,3.64
2022-12-27T17:38:45.692Z,3.67
2022-12-27T17:41:42.584Z,3.62
2022-12-27T17:44:34.350Z,3.69
2022-12-27T17:47:19.196Z,3.59
2022-12-27T17:49:48.145Z,3.57
2022-12-27T17:52:35.139Z,3.64
2022-12-27T17:55:35.116Z,3.63
2022-12-27T17:58:06.911Z,3.55
2022-12-27T18:00:36.504Z,3.49
2022-12-27T18:03:09.976Z,3.60
2022-12-27T18:05:41.978Z,3.54
2022-12-27T18:08:22.268Z,3.55
2022-12-27T18:10:51.532Z,3.46
2022-12-27T18:13:23.595Z,3.36
2022-12-27T18:15:51.949Z,3.24
2022-12-27T18:18:25.272Z,3.17
2022-12-27T18:20:56.237Z,3.13
2022-12-27T18:23:23.917Z,3.09
2022-12-27T18:26:13.222Z,3.10
2022-12-27T18:28:42.338Z,3.12
2022-12-27T18:31:15.504Z,3.04
2022-12-27T18:33:45.596Z,2.95
2022-12-27T18:36:17.166Z,2.90
2022-12-27T18:38:48.155Z,2.77
2022-12-27T18:41:19.899Z,2.75
2022-12-27T18:43:50.138Z,2.71
2022-12-27T18:46:27.836Z,2.65
2022-12-27T18:48:55.804Z,2.68
2022-12-27T18:51:30.922Z,2.72
2022-12-27T18:53:59.008Z,2.62
2022-12-27T18:56:32.493Z,2.63
2022-12-27T18:59:02.645Z,2.57
2022-12-27T19:01:41.981Z,2.56
2022-12-27T19:04:23.837Z,2.52
2022-12-27T19:07:06.876Z,2.48
2022-12-27T19:09:37.762Z,2.46
2022-12-27T19:12:14.926Z,2.47
2022-12-27T19:14:45.383Z,2.40
2022-12-27T19:17:17.880Z,2.39
2022-12-27T19:19:49.342Z,2.44
2022-12-27T19:22:37.183Z,2.38
2022-12-27T19:25:07.115Z,2.35
2022-12-27T19:27:36.100Z,2.36
2022-12-27T19:30:03.864Z,2.29
2022-12-27T19:32:35.422Z,2.28
2022-12-27T19:35:05.266Z,2.38
2022-12-27T19:37:34.949Z,2.36
2022-12-27T19:40:02.652Z,2.29
2022-12-27T19:42:31.978Z,2.33
2022-12-27T19:45:00.972Z,2.32
2022-12-27T19:47:28.969Z,2.15
2022-12-27T19:49:56.713Z,2.17
2022-12-27T19:52:27.075Z,2.18
2022-12-27T19:55:05.507Z,2.09
2022-12-27T19:57:33.423Z,2.07
2022-12-27T20:00:08.501Z,2.04
2022-12-27T20:02:40.050Z,2.00
2022-12-27T20:05:08.861Z,1.98
2022-12-27T20:07:37.275Z,1.92
2022-12-27T20:10:05.479Z,1.84
2022-12-27T20:12:33.202Z,1.78
2022-12-27T20:15:02.512Z,1.83
2022-12-27T20:17:32.429Z,1.75
2022-12-27T20:20:00.065Z,1.79
2022-12-27T20:22:27.829Z,1.82
2022-12-27T20:24:55.431Z,1.83
2022-12-27T20:27:23.868Z,1.78
2022-12-27T20:29:52.302Z,1.77
2022-12-27T20:32:21.561Z,1.80
2022-12-27T20:34:49.312Z,1.88
2022-12-27T20:37:22.633Z,1.94
2022-12-27T20:39:52.109Z,1.99
2022-12-27T20:42:20.179Z,1.92
2022-12-27T20:44:47.852Z,1.91
2022-12-27T20:47:15.566Z,1.88
2022-12-27T20:49:44.632Z,1.90
2022-12-27T20:52:12.457Z,1.95
2022-12-27T20:54:40.108Z,1.85
2022-12-27T20:57:07.738Z,1.83
2022-12-27T20:59:35.414Z,1.83
2022-12-27T21:02:03.197Z,1.84
2022-12-27T21:04:31.021Z,1.78
2022-12-27T21:07:00.052Z,1.72
2022-12-27T21:09:27.676Z,1.71
2022-12-27T21:11:55.620Z,1.75
2022-12-27T21:14:23.469Z,1.75
2022-12-27T21:16:51.272Z,1.71
2022-12-27T21:19:18.971Z,1.73
2022-12-27T21:21:46.862Z,1.74
2022-12-27T21:24:15.952Z,1.79
2022-12-27T21:26:43.766Z,1.82
2022-12-27T21:29:12.147Z,1.81
2022-12-27T21:31:39.865Z,1.76
2022-12-27T21:34:07.841Z,1.77
2022-12-27T21:36:36.365Z,1.80
2022-12-27T21:39:04.276Z,1.78
2022-12-27T21:41:35.106Z,1.77
2022-12-27T21:44:03.757Z,1.79
2022-12-27T21:46:33.539Z,1.82
2022-12-27T21:49:02.719Z,1.81
2022-12-27T21:51:31.998Z,1.83
2022-12-27T21:53:59.932Z,1.92
2022-12-27T21:56:28.134Z,1.94
2022-12-27T21:58:59.009Z,1.94
2022-12-27T22:01:28.519Z,2.02
2022-12-27T22:03:57.354Z,2.12
2022-12-27T22:06:27.508Z,2.08
2022-12-27T22:08:56.700Z,2.20
2022-12-27T22:11:26.083Z,2.14
2022-12-27T22:13:54.111Z,2.33
2022-12-27T22:16:25.184Z,2.31
2022-12-27T22:18:53.286Z,2.36
2022-12-27T22:21:23.161Z,2.41
2022-12-27T22:23:52.888Z,2.42
2022-12-27T22:26:23.312Z,2.39
2022-12-27T22:28:50.899Z,2.47
2022-12-27T22:31:20.542Z,2.49
2022-12-27T22:33:50.433Z,2.51
2022-12-27T22:36:20.187Z,2.54
2022-12-27T22:38:49.874Z,2.41
2022-12-27T22:41:20.336Z,2.44
2022-12-27T22:43:51.095Z,2.40
2022-12-27T22:46:19.594Z,2.51
2022-12-27T22:48:51.918Z,2.50
2022-12-27T22:51:22.051Z,2.58
2022-12-27T22:53:50.070Z,2.59
2022-12-27T22:56:19.961Z,2.55
2022-12-27T22:58:48.050Z,2.57
2022-12-27T23:01:18.678Z,2.53
2022-12-27T23:03:47.091Z,2.50
2022-12-27T23:06:16.767Z,2.67
2022-12-27T23:08:45.423Z,2.60
2022-12-27T23:11:16.419Z,2.58
2022-12-27T23:13:44.086Z,2.54
2022-12-27T23:16:12.147Z,2.53
2022-12-27T23:18:40.442Z,2.47
2022-12-27T23:21:20.407Z,2.57
2022-12-27T23:23:53.570Z,2.60
2022-12-27T23:26:23.943Z,2.60
2022-12-27T23:28:53.138Z,2.63
2022-12-27T23:31:22.192Z,2.76
2022-12-27T23:33:49.986Z,2.83
2022-12-27T23:36:17.930Z,2.72
2022-12-27T23:38:45.940Z,2.76
2022-12-27T23:41:17.444Z,2.66
2022-12-27T23:43:54.314Z,2.68
2022-12-27T23:46:25.580Z,2.62
2022-12-27T23:48:53.323Z,2.65
2022-12-27T23:51:21.842Z,2.68
2022-12-27T23:53:49.639Z,2.60
2022-12-27T23:56:20.936Z,2.75
2022-12-27T23:58:49.243Z,2.81
